Time;durP1;ratioP1;P1;durP2;ratioP2;P2;SDS_P1;SDS_P2;PMS_P1;PMS_P2;Temp;Humidity;BMP_temperature;BMP_pressure;BME280_temperature;BME280_humidity;BME280_pressure;Samples;Min_cycle;Max_cycle;Signal;HPM_P1;HPM_P2
2022/05/01 00:02:20;;;;;;;30.33;14.98;;;;;;;-149.78;100.00;50185.91;4692625;30;20389;-69
2022/05/01 00:04:46;;;;;;;28.70;13.88;;;;;;;-149.78;100.00;50174.19;4695302;30;20380;-69
2022/05/01 00:07:12;;;;;;;29.80;13.73;;;;;;;-149.78;100.00;50150.72;4690515;30;20499;-69
2022/05/01 00:09:40;;;;;;;29.38;13.63;;;;;;;-149.78;100.00;50209.38;4675003;30;20136;-69
2022/05/01 00:12:07;;;;;;;24.60;13.00;;;;;;;-149.78;100.00;50160.50;4690024;30;20045;-70
2022/05/01 00:14:34;;;;;;;28.38;13.35;;;;;;;-149.78;100.00;50150.72;4674882;30;20045;-69
2022/05/01 00:17:01;;;;;;;22.77;11.75;;;;;;;-149.78;100.00;50162.44;4690159;30;20211;-69
2022/05/01 00:19:27;;;;;;;21.55;10.93;;;;;;;-149.78;100.00;50168.31;4690390;30;20076;-70
2022/05/01 00:21:55;;;;;;;22.05;10.73;;;;;;;-149.78;100.00;50168.31;4690167;30;20069;-69
2022/05/01 00:24:21;;;;;;;22.98;9.90;;;;;;;-149.78;100.00;50189.81;4689135;30;20571;-69
2022/05/01 00:26:47;;;;;;;20.40;10.32;;;;;;;-149.78;100.00;50185.91;4689426;30;20050;-69
2022/05/01 00:29:12;;;;;;;18.17;10.05;;;;;;;-149.78;100.00;50189.81;4673748;30;20045;-69
2022/05/01 00:31:39;;;;;;;24.55;10.02;;;;;;;-149.78;100.00;50170.25;4673242;30;20084;-69
2022/05/01 00:36:50;;;;;;;24.00;9.93;;;;;;;-149.78;100.00;50146.81;4688899;30;20045;-70
2022/05/01 00:39:16;;;;;;;25.17;10.45;;;;;;;-149.78;100.00;50189.81;4689009;30;20426;-70
2022/05/01 00:41:43;;;;;;;20.65;9.75;;;;;;;-149.78;100.00;50174.19;4688657;30;20094;-69
2022/05/01 00:44:11;;;;;;;18.98;9.27;;;;;;;-149.78;100.00;50135.06;4689125;30;20123;-70
2022/05/01 00:46:44;;;;;;;22.15;9.88;;;;;;;-149.78;100.00;50174.19;4673222;30;20052;-69
2022/05/01 00:49:22;;;;;;;23.55;10.77;;;;;;;-149.78;100.00;50172.22;4673317;30;20057;-70
2022/05/01 00:51:57;;;;;;;19.70;9.80;;;;;;;-149.78;100.00;50174.19;4688792;30;20140;-70
2022/05/01 00:54:31;;;;;;;18.75;10.05;;;;;;;-149.78;100.00;50170.25;4688427;30;20062;-69
2022/05/01 00:57:03;;;;;;;21.70;10.13;;;;;;;-149.78;100.00;50166.34;4688556;30;20046;-70
2022/05/01 00:59:30;;;;;;;20.75;10.48;;;;;;;-149.78;100.00;50189.81;4688290;30;20141;-70
2022/05/01 01:01:56;;;;;;;19.58;10.07;;;;;;;-149.78;100.00;50154.63;4688502;30;20057;-69
2022/05/01 01:04:22;;;;;;;21.85;10.25;;;;;;;-149.78;100.00;50197.66;4687348;30;20099;-70
2022/05/01 01:06:48;;;;;;;22.10;9.75;;;;;;;-149.78;100.00;50201.56;4688366;30;20049;-70
2022/05/01 01:09:15;;;;;;;20.27;9.90;;;;;;;-149.78;100.00;50182.00;4688603;30;20608;-70
2022/05/01 01:11:42;;;;;;;19.20;9.75;;;;;;;-149.78;100.00;50170.25;4688454;30;20427;-70
2022/05/01 01:14:08;;;;;;;21.77;9.98;;;;;;;-149.78;100.00;50189.81;4672948;30;20124;-70
2022/05/01 01:16:36;;;;;;;18.77;8.75;;;;;;;-149.78;100.00;50170.25;4688456;30;20124;-70
2022/05/01 01:19:07;;;;;;;21.52;9.60;;;;;;;-149.78;100.00;50182.00;4688622;30;20042;-70
2022/05/01 01:21:33;;;;;;;19.08;9.85;;;;;;;-149.78;100.00;50197.66;4688072;30;20053;-70
2022/05/01 01:24:01;;;;;;;23.63;9.23;;;;;;;-149.78;100.00;50217.19;4672567;30;20053;-71
2022/05/01 01:26:28;;;;;;;17.35;8.68;;;;;;;-149.78;100.00;50166.34;4687750;30;20076;-70
2022/05/01 01:28:55;;;;;;;22.00;10.07;;;;;;;-149.78;100.00;50162.44;4688145;30;20387;-70
2022/05/01 01:31:41;;;;;;;17.65;8.77;;;;;;;-149.78;100.00;50174.19;4688209;30;20037;-70
2022/05/01 01:34:14;;;;;;;21.05;9.23;;;;;;;-149.78;100.00;50201.56;4689154;30;20414;-70
2022/05/01 01:36:43;;;;;;;20.80;9.05;;;;;;;-149.78;100.00;50182.00;4688171;30;20049;-70
2022/05/01 01:39:08;;;;;;;18.65;9.25;;;;;;;-149.78;100.00;50205.47;4688706;30;20086;-70
2022/05/01 01:41:35;;;;;;;19.40;9.27;;;;;;;-149.78;100.00;50213.28;4673558;30;20065;-71
2022/05/01 01:44:01;;;;;;;24.13;11.15;;;;;;;-149.78;100.00;50178.09;4689786;30;20616;-70
2022/05/01 01:46:26;;;;;;;19.38;9.57;;;;;;;-149.78;100.00;50154.63;4689169;30;20042;-70
2022/05/01 01:48:53;;;;;;;18.05;9.32;;;;;;;-149.78;100.00;50170.25;4687450;30;20049;-70
2022/05/01 01:51:20;;;;;;;19.35;9.27;;;;;;;-149.78;100.00;50162.44;4687612;30;20045;-70
2022/05/01 01:53:46;;;;;;;18.25;9.45;;;;;;;-149.78;100.00;50174.19;4688448;30;20037;-70
2022/05/01 01:56:12;;;;;;;19.48;9.25;;;;;;;-149.78;100.00;50197.66;4687377;30;20203;-70
2022/05/01 01:58:40;;;;;;;20.75;8.95;;;;;;;-149.78;100.00;50197.66;4687964;30;20129;-70
2022/05/01 02:01:07;;;;;;;19.63;9.98;;;;;;;-149.78;100.00;50225.03;4687076;30;20049;-70
2022/05/01 02:03:33;;;;;;;22.38;10.05;;;;;;;-149.78;100.00;50205.47;4687976;30;20056;-70
2022/05/01 02:05:59;;;;;;;19.50;9.32;;;;;;;-149.78;100.00;50182.00;4687917;30;20045;-70
2022/05/01 02:08:25;;;;;;;19.17;9.43;;;;;;;-149.78;100.00;50205.47;4686647;30;20049;-70
2022/05/01 02:10:51;;;;;;;21.88;9.35;;;;;;;-149.78;100.00;50189.81;4687701;30;20034;-70
2022/05/01 02:13:17;;;;;;;21.33;9.25;;;;;;;-149.78;100.00;50156.56;4672179;30;20522;-70
2022/05/01 02:15:43;;;;;;;21.45;10.05;;;;;;;-149.78;100.00;50203.50;4687375;30;20057;-70
2022/05/01 02:18:09;;;;;;;21.60;10.82;;;;;;;-149.78;100.00;50166.34;4687405;30;20045;-71
2022/05/01 02:23:24;;;;;;;19.27;10.13;;;;;;;-149.78;100.00;50178.09;4688025;30;20116;-70
2022/05/01 02:25:50;;;;;;;19.52;10.52;;;;;;;-149.78;100.00;50162.44;4687172;30;20145;-70
2022/05/01 02:28:16;;;;;;;21.55;10.30;;;;;;;-149.78;100.00;50135.06;4688077;30;20059;-70
2022/05/01 02:30:42;;;;;;;25.30;11.32;;;;;;;-149.78;100.00;50199.59;4671798;30;20112;-70
2022/05/01 02:33:08;;;;;;;23.20;11.68;;;;;;;-149.78;100.00;50228.94;4687506;30;20441;-71
2022/05/01 02:35:35;;;;;;;25.35;11.48;;;;;;;-149.78;100.00;50170.25;4672373;30;20116;-70
2022/05/01 02:38:02;;;;;;;23.67;11.27;;;;;;;-149.78;100.00;50221.13;4674866;30;20053;-70
2022/05/01 02:40:31;;;;;;;25.38;12.18;;;;;;;-149.78;100.00;50197.66;4691107;30;20041;-70
2022/05/01 02:43:00;;;;;;;20.27;10.40;;;;;;;-149.78;100.00;50205.47;4675605;30;20038;-70
2022/05/01 02:45:27;;;;;;;21.67;10.63;;;;;;;-149.78;100.00;50213.28;4690744;30;20061;-70
2022/05/01 02:47:53;;;;;;;23.40;10.93;;;;;;;-149.78;100.00;50189.81;4691146;30;20359;-71
2022/05/01 02:50:18;;;;;;;23.27;11.18;;;;;;;-149.78;100.00;50162.44;4675297;30;20053;-71
2022/05/01 02:52:45;;;;;;;18.83;9.27;;;;;;;-149.78;100.00;50236.75;4690316;30;20487;-70
2022/05/01 02:55:11;;;;;;;20.17;10.40;;;;;;;-149.78;100.00;50217.19;4690055;30;20591;-70
2022/05/01 02:57:37;;;;;;;21.10;10.63;;;;;;;-149.78;100.00;50197.66;4690050;30;20066;-70
2022/05/01 03:00:06;;;;;;;20.30;11.00;;;;;;;-149.78;100.00;50197.66;4690512;30;20049;-70
2022/05/01 03:02:32;;;;;;;19.77;10.20;;;;;;;-149.78;100.00;50225.03;4690295;30;20053;-67
2022/05/01 03:04:58;;;;;;;23.08;10.30;;;;;;;-149.78;100.00;50174.19;4674760;30;20626;-67
2022/05/01 03:07:24;;;;;;;23.13;10.85;;;;;;;-149.78;100.00;50201.56;4690661;30;20057;-67
2022/05/01 03:09:50;;;;;;;22.17;10.20;;;;;;;-149.78;100.00;50183.97;4690119;30;20052;-67
2022/05/01 03:12:18;;;;;;;24.33;12.20;;;;;;;-149.78;100.00;50180.03;4690296;30;20204;-67
2022/05/01 03:14:45;;;;;;;23.52;12.55;;;;;;;-149.78;100.00;50236.75;4690664;30;20053;-67
2022/05/01 03:17:11;;;;;;;24.55;12.10;;;;;;;-149.78;100.00;50185.91;4690444;30;20137;-67
2022/05/01 03:22:21;;;;;;;21.70;11.68;;;;;;;-149.78;100.00;50189.81;4690222;30;20037;-67
2022/05/01 03:24:46;;;;;;;27.02;12.30;;;;;;;-149.78;100.00;50172.22;4690154;30;20033;-67
2022/05/01 03:27:12;;;;;;;22.80;11.75;;;;;;;-149.78;100.00;50211.34;4690046;30;20132;-67
2022/05/01 03:29:38;;;;;;;24.23;11.90;;;;;;;-149.78;100.00;50162.44;4690276;30;20361;-67
2022/05/01 03:32:07;;;;;;;23.30;12.15;;;;;;;-149.78;100.00;50225.03;4689896;30;20482;-67
2022/05/01 03:34:40;;;;;;;24.77;12.48;;;;;;;-149.78;100.00;50182.00;4689492;30;20069;-67
2022/05/01 03:37:09;;;;;;;25.60;12.45;;;;;;;-149.78;100.00;50201.56;4674514;30;20041;-67
2022/05/01 03:39:35;;;;;;;24.38;13.48;;;;;;;-149.78;100.00;50205.47;4689538;30;20052;-67
2022/05/01 03:42:02;;;;;;;28.45;13.63;;;;;;;-149.78;100.00;50209.38;4689166;30;20623;-67
2022/05/01 03:44:28;;;;;;;27.00;13.52;;;;;;;-149.78;100.00;50174.19;4689551;30;20134;-67
2022/05/01 03:46:54;;;;;;;27.25;14.35;;;;;;;-149.78;100.00;50209.38;4688451;30;20041;-67
2022/05/01 03:49:20;;;;;;;29.27;13.98;;;;;;;-149.78;100.00;50203.50;4689582;30;20029;-67
2022/05/01 03:51:46;;;;;;;30.35;14.35;;;;;;;-149.78;100.00;50185.91;4689672;30;20651;-67
2022/05/01 03:54:12;;;;;;;31.88;15.05;;;;;;;-149.78;100.00;50205.47;4689556;30;20103;-67
2022/05/01 03:56:37;;;;;;;25.45;13.52;;;;;;;-149.78;100.00;50187.88;4689418;30;20471;-67
2022/05/01 03:59:04;;;;;;;25.42;13.55;;;;;;;-149.78;100.00;50201.56;4673735;30;20045;-67
2022/05/01 04:01:31;;;;;;;25.27;14.00;;;;;;;-149.78;100.00;50185.91;4690097;30;20058;-68
2022/05/01 04:03:58;;;;;;;29.48;13.98;;;;;;;-149.78;100.00;50205.47;4705524;30;20115;-67
2022/05/01 04:06:24;;;;;;;24.85;14.18;;;;;;;-149.78;100.00;50201.56;4701644;30;20517;-67
2022/05/01 04:08:49;;;;;;;28.38;14.48;;;;;;;-149.78;100.00;50189.81;4716275;30;20570;-67
2022/05/01 04:11:15;;;;;;;27.05;14.10;;;;;;;-149.78;100.00;50209.38;4695254;30;20049;-67
2022/05/01 04:13:42;;;;;;;27.17;13.93;;;;;;;-149.78;100.00;50205.47;4689861;30;20041;-67
2022/05/01 04:16:08;;;;;;;27.45;14.70;;;;;;;-149.78;100.00;50213.28;4688388;30;20045;-67
2022/05/01 04:18:34;;;;;;;30.35;15.02;;;;;;;-149.78;100.00;50197.66;4687863;30;20041;-67
2022/05/01 04:21:01;;;;;;;31.55;15.50;;;;;;;-149.78;100.00;50197.66;4687985;30;20045;-68
2022/05/01 04:23:26;;;;;;;31.50;16.08;;;;;;;-149.78;100.00;50221.13;4687854;30;20152;-67
2022/05/01 04:25:53;;;;;;;33.00;16.15;;;;;;;-149.78;100.00;50178.09;4688164;30;20128;-67
2022/05/01 04:28:19;;;;;;;31.23;15.77;;;;;;;-149.78;100.00;50195.69;4658203;30;20053;-67
2022/05/01 04:30:46;;;;;;;32.78;17.20;;;;;;;-149.78;100.00;50178.09;4687657;30;20427;-67
2022/05/01 04:33:14;;;;;;;35.50;17.73;;;;;;;-149.78;100.00;50236.75;4687742;30;20487;-67
2022/05/01 04:35:45;;;;;;;38.33;18.50;;;;;;;-149.78;100.00;50180.03;4672309;30;20064;-67
2022/05/01 04:38:23;;;;;;;42.78;18.60;;;;;;;-149.78;100.00;50256.31;4687542;30;20038;-67
2022/05/01 04:40:51;;;;;;;36.20;18.60;;;;;;;-149.78;100.00;50203.50;4687552;30;20128;-67
2022/05/01 04:43:21;;;;;;;41.00;18.80;;;;;;;-149.78;100.00;50203.50;4687582;30;20060;-67
2022/05/01 04:45:50;;;;;;;42.50;19.45;;;;;;;-149.78;100.00;50246.53;4687916;30;20033;-67
2022/05/01 04:48:17;;;;;;;42.83;18.55;;;;;;;-149.78;100.00;50226.97;4686750;30;21760;-67
2022/05/01 04:50:44;;;;;;;37.30;18.08;;;;;;;-149.78;100.00;50221.13;4687932;30;20045;-67
2022/05/01 04:53:11;;;;;;;41.13;19.17;;;;;;;-149.78;100.00;50213.28;4687816;30;20569;-67
2022/05/01 04:55:38;;;;;;;42.65;18.67;;;;;;;-149.78;100.00;50178.09;4688146;30;20046;-67
2022/05/01 04:58:04;;;;;;;35.85;18.00;;;;;;;-149.78;100.00;50226.97;4686486;30;20108;-67
2022/05/01 05:00:30;;;;;;;37.95;18.65;;;;;;;-149.78;100.00;50230.88;4687577;30;20045;-67
2022/05/01 05:02:57;;;;;;;34.58;18.27;;;;;;;-149.78;100.00;50215.25;4689621;30;20491;-67
2022/05/01 05:05:23;;;;;;;35.28;17.00;;;;;;;-149.78;100.00;50252.41;4686950;30;20037;-67
2022/05/01 05:07:49;;;;;;;39.35;18.50;;;;;;;-149.78;100.00;50240.66;4686844;30;20053;-67
2022/05/01 05:10:16;;;;;;;36.35;18.02;;;;;;;-149.78;100.00;50207.44;4687249;30;20525;-67
2022/05/01 05:12:43;;;;;;;37.58;17.38;;;;;;;-149.78;100.00;50232.84;4687908;30;20046;-67
2022/05/01 05:15:11;;;;;;;35.78;17.17;;;;;;;-149.78;100.00;50182.00;4687126;30;20052;-67
2022/05/01 05:17:38;;;;;;;33.55;15.80;;;;;;;-149.78;100.00;50232.84;4671636;30;20033;-67
2022/05/01 05:20:08;;;;;;;34.92;15.75;;;;;;;-149.78;100.00;50217.19;4687507;30;20045;-67
2022/05/01 05:22:34;;;;;;;31.98;15.18;;;;;;;-149.78;100.00;50228.94;4687092;30;20037;-67
2022/05/01 05:25:00;;;;;;;33.78;15.05;;;;;;;-149.78;100.00;50209.38;4687042;30;20139;-67
2022/05/01 05:27:26;;;;;;;31.25;15.85;;;;;;;-149.78;100.00;50232.84;4687493;30;20033;-67
2022/05/01 05:29:56;;;;;;;27.98;13.70;;;;;;;-149.78;100.00;50209.38;4687053;30;20043;-67
2022/05/01 05:32:23;;;;;;;25.95;13.55;;;;;;;-149.78;100.00;50189.81;4687207;30;20050;-67
2022/05/01 05:34:49;;;;;;;27.50;13.18;;;;;;;-149.78;100.00;50180.03;4671513;30;20726;-67
2022/05/01 05:37:16;;;;;;;24.73;12.80;;;;;;;-149.78;100.00;50205.47;4687849;30;20487;-67
2022/05/01 05:39:42;;;;;;;28.85;13.27;;;;;;;-149.78;100.00;50225.03;4671135;30;20718;-67
2022/05/01 05:42:08;;;;;;;25.60;12.10;;;;;;;-149.78;100.00;50197.66;4687210;30;20053;-67
2022/05/01 05:44:34;;;;;;;22.65;11.93;;;;;;;-149.78;100.00;50197.66;4686315;30;20049;-67
2022/05/01 05:46:59;;;;;;;26.23;12.55;;;;;;;-149.78;100.00;50207.44;4686951;30;20376;-67
2022/05/01 05:49:25;;;;;;;23.67;12.02;;;;;;;-149.78;100.00;50228.94;4686612;30;20033;-67
2022/05/01 05:51:51;;;;;;;25.88;12.20;;;;;;;-149.78;100.00;50236.75;4686411;30;20381;-67
2022/05/01 05:54:17;;;;;;;21.00;11.07;;;;;;;-149.78;100.00;50248.50;4670492;30;20100;-67
2022/05/01 05:56:42;;;;;;;23.48;12.23;;;;;;;-149.78;100.00;50232.84;4686292;30;20062;-67
2022/05/01 05:59:08;;;;;;;19.05;10.50;;;;;;;-149.78;100.00;50246.53;4686761;30;20045;-67
2022/05/01 06:01:34;;;;;;;21.73;10.75;;;;;;;-149.78;100.00;50211.34;4686229;30;20085;-67
2022/05/01 06:04:00;;;;;;;18.30;10.65;;;;;;;-149.78;100.00;50189.81;4686818;30;20037;-68
2022/05/01 06:06:26;;;;;;;22.27;10.23;;;;;;;-149.78;100.00;50201.56;4687203;30;20045;-67
2022/05/01 06:08:52;;;;;;;17.50;10.00;;;;;;;-149.78;100.00;50226.97;4687023;30;20049;-67
2022/05/01 06:11:17;;;;;;;19.15;10.02;;;;;;;-149.78;100.00;50166.34;4688461;30;20038;-67
2022/05/01 06:13:43;;;;;;;21.38;9.93;;;;;;;-149.78;100.00;50197.66;4690494;30;20042;-67
2022/05/01 06:16:09;;;;;;;16.27;9.05;;;;;;;-149.78;100.00;50236.75;4690396;30;20088;-67
2022/05/01 06:18:34;;;;;;;18.58;8.90;;;;;;;-149.78;100.00;50189.81;4690587;30;20037;-67
2022/05/01 06:21:00;;;;;;;19.13;10.18;;;;;;;-149.78;100.00;50248.50;4690468;30;20107;-67
2022/05/01 06:23:26;;;;;;;18.45;9.13;;;;;;;-149.78;100.00;50256.31;4689734;30;20053;-69
2022/05/01 06:25:52;;;;;;;16.02;8.45;;;;;;;-149.78;100.00;50205.47;4674091;30;20041;-67
2022/05/01 06:28:17;;;;;;;15.07;8.40;;;;;;;-149.78;100.00;50238.72;4689689;30;20060;-67
2022/05/01 06:30:48;;;;;;;15.10;8.40;;;;;;;-149.78;100.00;50238.72;4690455;30;20049;-67
2022/05/01 06:33:15;;;;;;;15.27;8.35;;;;;;;-149.78;100.00;50221.13;4690170;30;20048;-67
2022/05/01 06:35:42;;;;;;;15.40;9.25;;;;;;;-149.78;100.00;50176.13;4688253;30;20053;-67
2022/05/01 06:38:08;;;;;;;17.75;9.60;;;;;;;-149.78;100.00;50219.16;4660000;30;20658;-69
2022/05/01 06:40:40;;;;;;;18.65;9.52;;;;;;;-149.78;100.00;50201.56;4689686;30;20857;-67
2022/05/01 06:43:07;;;;;;;21.55;10.50;;;;;;;-149.78;100.00;50232.84;4673659;30;20053;-66
2022/05/01 06:45:33;;;;;;;17.50;9.80;;;;;;;-149.78;100.00;50225.03;4689142;30;20044;-66
2022/05/01 06:47:58;;;;;;;20.58;10.07;;;;;;;-149.78;100.00;50232.84;4689829;30;20041;-66
2022/05/01 06:50:24;;;;;;;19.33;9.68;;;;;;;-149.78;100.00;50201.56;4688590;30;20372;-66
2022/05/01 06:52:50;;;;;;;17.73;9.20;;;;;;;-149.78;100.00;50215.25;4689215;30;20095;-66
2022/05/01 06:55:18;;;;;;;17.52;9.50;;;;;;;-149.78;100.00;50228.94;4689656;30;20052;-67
2022/05/01 06:57:43;;;;;;;18.35;9.25;;;;;;;-149.78;100.00;50221.13;4689450;30;20049;-66
2022/05/01 07:00:11;;;;;;;17.48;9.30;;;;;;;-149.78;100.00;50166.34;4689832;30;20052;-66
2022/05/01 07:02:44;;;;;;;18.38;9.45;;;;;;;-149.78;100.00;50187.88;4674545;30;20062;-66
2022/05/01 07:05:09;;;;;;;19.77;10.50;;;;;;;-149.78;100.00;50189.81;4688226;30;20057;-66
2022/05/01 07:07:35;;;;;;;17.25;9.73;;;;;;;-149.78;100.00;50225.03;4673112;30;20121;-66
2022/05/01 07:10:00;;;;;;;23.08;10.50;;;;;;;-149.78;100.00;50189.81;4688673;30;20045;-67
2022/05/01 07:12:26;;;;;;;19.95;10.07;;;;;;;-149.78;100.00;50232.84;4689119;30;20772;-66
2022/05/01 07:14:53;;;;;;;16.20;9.52;;;;;;;-149.78;100.00;50248.50;4688458;30;20102;-66
2022/05/01 07:17:18;;;;;;;19.42;10.60;;;;;;;-149.78;100.00;50189.81;4688262;30;20042;-66
2022/05/01 07:19:44;;;;;;;21.50;10.00;;;;;;;-149.78;100.00;50226.97;4687588;30;20040;-66
2022/05/01 07:22:13;;;;;;;19.48;10.18;;;;;;;-149.78;100.00;50225.03;4687682;30;20030;-66
2022/05/01 07:24:41;;;;;;;17.75;9.65;;;;;;;-149.78;100.00;50248.50;4687726;30;20048;-66
2022/05/01 07:27:06;;;;;;;19.27;10.02;;;;;;;-149.78;100.00;50203.50;4687651;30;20061;-66
2022/05/01 07:29:32;;;;;;;18.05;9.10;;;;;;;-149.78;100.00;50209.38;4686845;30;20045;-66
2022/05/01 07:31:57;;;;;;;16.00;9.07;;;;;;;-149.78;100.00;50230.88;4671732;30;20050;-66
2022/05/01 07:34:23;;;;;;;20.00;10.35;;;;;;;-149.78;100.00;50221.13;4657732;30;20045;-66
2022/05/01 07:36:49;;;;;;;18.90;9.45;;;;;;;-149.78;100.00;50221.13;4687491;30;20407;-66
2022/05/01 07:39:15;;;;;;;18.55;9.73;;;;;;;-149.78;100.00;50221.13;4687109;30;20045;-67
2022/05/01 07:41:41;;;;;;;19.52;10.02;;;;;;;-149.78;100.00;50232.84;4688728;30;20083;-66
2022/05/01 07:44:08;;;;;;;18.55;9.60;;;;;;;-149.78;100.00;50221.13;4687583;30;20082;-66
2022/05/01 07:46:35;;;;;;;15.77;8.57;;;;;;;-149.78;100.00;50228.94;4688452;30;20042;-66
2022/05/01 07:49:00;;;;;;;20.30;8.50;;;;;;;-149.78;100.00;50221.13;4687129;30;20041;-66
2022/05/01 07:51:26;;;;;;;19.27;9.80;;;;;;;-149.78;100.00;50213.28;4688234;30;20042;-67
2022/05/01 07:53:53;;;;;;;18.02;9.20;;;;;;;-149.78;100.00;50182.00;4672209;30;20041;-66
2022/05/01 07:56:19;;;;;;;16.52;9.25;;;;;;;-149.78;100.00;50236.75;4687766;30;20487;-66
2022/05/01 07:58:45;;;;;;;16.67;9.10;;;;;;;-149.78;100.00;50197.66;4688164;30;20079;-68
2022/05/01 08:01:10;;;;;;;17.27;9.30;;;;;;;-149.78;100.00;50232.84;4687666;30;20157;-67
2022/05/01 08:06:22;;;;;;;19.73;9.40;;;;;;;-149.78;100.00;50213.28;4687265;30;20091;-67
2022/05/01 08:08:49;;;;;;;18.77;9.02;;;;;;;-149.78;100.00;50215.25;4686644;30;20042;-68
2022/05/01 08:11:14;;;;;;;17.13;8.63;;;;;;;-149.78;100.00;50209.38;4668768;30;20487;-67
2022/05/01 08:13:40;;;;;;;19.90;9.52;;;;;;;-149.78;100.00;50223.06;4670684;30;20100;-67
2022/05/01 08:16:06;;;;;;;23.27;10.07;;;;;;;-149.78;100.00;50213.28;4685836;30;20057;-67
2022/05/01 08:21:17;;;;;;;20.20;9.38;;;;;;;-149.78;100.00;50187.88;4686090;30;20050;-67
2022/05/01 08:23:43;;;;;;;17.48;9.82;;;;;;;-149.78;100.00;50203.50;4670528;30;20076;-67
2022/05/01 08:26:13;;;;;;;16.00;8.75;;;;;;;-149.78;100.00;50197.66;4685929;30;20056;-67
2022/05/01 08:28:41;;;;;;;20.52;10.48;;;;;;;-149.78;100.00;50236.75;4686163;30;20057;-66
2022/05/01 08:31:08;;;;;;;18.27;9.95;;;;;;;-149.78;100.00;50230.88;4685198;30;20077;-67
2022/05/01 08:33:35;;;;;;;17.38;10.18;;;;;;;-149.78;100.00;50195.69;4684895;30;20046;-67
2022/05/01 08:36:04;;;;;;;20.33;10.07;;;;;;;-149.78;100.00;50230.88;4670461;30;20041;-67
2022/05/01 08:38:31;;;;;;;16.17;8.88;;;;;;;-149.78;100.00;50201.56;4670153;30;20037;-67
2022/05/01 08:40:57;;;;;;;22.08;10.40;;;;;;;-149.78;100.00;50236.75;4685720;30;20034;-67
2022/05/01 08:43:24;;;;;;;20.45;10.48;;;;;;;-149.78;100.00;50205.47;4685528;30;20053;-67
2022/05/01 08:45:56;;;;;;;16.55;9.50;;;;;;;-149.78;100.00;50185.91;4686128;30;20042;-66
2022/05/01 08:48:39;;;;;;;19.38;10.48;;;;;;;-149.78;100.00;50201.56;4685652;30;20069;-66
2022/05/01 08:51:05;;;;;;;20.77;10.65;;;;;;;-149.78;100.00;50185.91;4685344;30;20056;-66
2022/05/01 08:53:31;;;;;;;25.17;12.13;;;;;;;-149.78;100.00;50162.44;4670259;30;20060;-67
2022/05/01 08:55:59;;;;;;;21.67;11.10;;;;;;;-149.78;100.00;50225.03;4670299;30;20053;-66
2022/05/01 08:58:28;;;;;;;22.20;10.25;;;;;;;-149.78;100.00;50176.13;4685758;30;20044;-66
2022/05/01 09:00:54;;;;;;;18.02;9.70;;;;;;;-149.78;100.00;50219.16;4684591;30;20072;-66
2022/05/01 09:03:19;;;;;;;16.27;9.32;;;;;;;-149.78;100.00;50201.56;4684623;30;20069;-66
2022/05/01 09:05:45;;;;;;;16.02;9.27;;;;;;;-149.78;100.00;50189.81;4685010;30;20037;-66
2022/05/01 09:08:11;;;;;;;14.82;8.43;;;;;;;-149.78;100.00;50209.38;4669416;30;20056;-67
2022/05/01 09:10:40;;;;;;;16.55;8.88;;;;;;;-149.78;100.00;50221.13;4685212;30;20107;-67
2022/05/01 09:13:07;;;;;;;16.42;9.38;;;;;;;-149.78;100.00;50221.13;4684375;30;20091;-66
2022/05/01 09:15:36;;;;;;;15.35;9.10;;;;;;;-149.78;100.00;50219.16;4668517;30;20041;-66
2022/05/01 09:18:08;;;;;;;20.05;9.85;;;;;;;-149.78;100.00;50234.81;4684486;30;20037;-66
2022/05/01 09:20:57;;;;;;;20.15;10.48;;;;;;;-149.78;100.00;50154.63;4684782;30;20471;-66
2022/05/01 09:23:36;;;;;;;21.48;11.27;;;;;;;-149.78;100.00;50228.94;4669329;30;20037;-68
2022/05/01 09:26:02;;;;;;;23.52;11.77;;;;;;;-149.78;100.00;50236.75;4685379;30;20069;-68
2022/05/01 09:28:28;;;;;;;23.00;12.30;;;;;;;-149.78;100.00;50201.56;4685360;30;20148;-68
2022/05/01 09:30:54;;;;;;;25.45;12.43;;;;;;;-149.78;100.00;50182.00;4669379;30;20392;-68
2022/05/01 09:33:20;;;;;;;23.73;12.63;;;;;;;-149.78;100.00;50166.34;4685715;30;20049;-68
2022/05/01 09:35:46;;;;;;;24.33;12.48;;;;;;;-149.78;100.00;50205.47;4685624;30;20052;-68
2022/05/01 09:38:12;;;;;;;24.45;12.40;;;;;;;-149.78;100.00;50238.72;4685355;30;20097;-68
2022/05/01 09:40:38;;;;;;;26.77;13.02;;;;;;;-149.78;100.00;50232.84;4669803;30;20099;-68
2022/05/01 09:43:07;;;;;;;25.00;12.18;;;;;;;-149.78;100.00;50209.38;4686129;30;20133;-68
2022/05/01 09:45:33;;;;;;;23.67;12.18;;;;;;;-149.78;100.00;50228.94;4672567;30;20072;-68
2022/05/01 09:47:59;;;;;;;25.00;11.35;;;;;;;-149.78;100.00;50205.47;4672519;30;20214;-68
2022/05/01 09:50:40;;;;;;;23.60;11.77;;;;;;;-149.78;100.00;50182.00;4688651;30;20136;-68
2022/05/01 09:53:06;;;;;;;21.33;10.38;;;;;;;-149.78;100.00;50240.66;4688246;30;20041;-68
2022/05/01 09:55:32;;;;;;;22.13;10.80;;;;;;;-149.78;100.00;50185.91;4687725;30;20083;-68
2022/05/01 09:58:11;;;;;;;21.88;11.35;;;;;;;-149.78;100.00;50207.44;4658482;30;20495;-68
2022/05/01 10:00:45;;;;;;;22.67;11.20;;;;;;;-149.78;100.00;50189.81;4673637;30;20517;-68
2022/05/01 10:03:31;;;;;;;20.00;11.27;;;;;;;-149.78;100.00;50185.91;4654507;30;20073;-69
2022/05/01 10:05:59;;;;;;;18.55;10.77;;;;;;;-149.78;100.00;50221.13;4654152;30;20043;-68
2022/05/01 10:08:25;;;;;;;15.52;9.43;;;;;;;-149.78;100.00;50232.84;4653138;30;20042;-68
2022/05/01 10:10:57;;;;;;;18.15;9.68;;;;;;;-149.78;100.00;50228.94;4654139;30;20046;-68
2022/05/01 10:13:27;;;;;;;16.90;9.70;;;;;;;-149.78;100.00;50228.94;4654116;30;20081;-68
2022/05/01 10:15:53;;;;;;;19.65;9.80;;;;;;;-149.78;100.00;50221.13;4655822;30;20105;-68
2022/05/01 10:18:21;;;;;;;16.48;9.07;;;;;;;-149.78;100.00;50213.28;4655056;30;20054;-68
2022/05/01 10:20:47;;;;;;;19.45;9.63;;;;;;;-149.78;100.00;50197.66;4655851;30;20058;-68
2022/05/01 10:23:14;;;;;;;16.60;9.10;;;;;;;-149.78;100.00;50197.66;4655643;30;20200;-68
2022/05/01 10:25:50;;;;;;;17.90;9.35;;;;;;;-149.78;100.00;50240.66;4655744;30;20045;-68
2022/05/01 10:28:25;;;;;;;15.80;8.43;;;;;;;-149.78;100.00;50205.47;4655924;30;20042;-68
2022/05/01 10:34:02;;;;;;;16.88;9.23;;;;;;;-149.78;100.00;50209.38;4655796;30;20049;-68
2022/05/01 10:36:30;;;;;;;16.70;8.60;;;;;;;-149.78;100.00;50176.13;4654053;30;20056;-68
2022/05/01 10:39:09;;;;;;;15.48;9.10;;;;;;;-149.78;100.00;50166.34;4655944;30;20100;-68
2022/05/01 10:41:39;;;;;;;16.27;8.07;;;;;;;-149.78;100.00;50199.59;4655017;30;20027;-68
2022/05/01 10:44:05;;;;;;;11.82;7.63;;;;;;;-149.78;100.00;50205.47;4655202;30;20673;-68
2022/05/01 10:46:32;;;;;;;12.80;7.90;;;;;;;-149.78;100.00;50209.38;4655082;30;20042;-68
2022/05/01 10:49:05;;;;;;;11.27;7.30;;;;;;;-149.78;100.00;50213.28;4653590;30;20093;-68
2022/05/01 10:51:30;;;;;;;11.65;7.00;;;;;;;-149.78;100.00;50213.28;4655170;30;20176;-68
2022/05/01 10:54:10;;;;;;;11.75;6.82;;;;;;;-149.78;100.00;50182.00;4654362;30;20046;-68
2022/05/01 10:56:37;;;;;;;10.85;7.30;;;;;;;-149.78;100.00;50142.88;4654269;30;20041;-68
2022/05/01 10:59:42;;;;;;;11.73;7.22;;;;;;;-149.78;100.00;50182.00;4655204;30;20133;-68
2022/05/01 11:02:35;;;;;;;11.75;7.25;;;;;;;-149.78;100.00;50178.09;4674824;30;20526;-68
2022/05/01 11:05:01;;;;;;;10.57;6.75;;;;;;;-149.78;100.00;50150.72;4689332;30;20037;-68
2022/05/01 11:07:28;;;;;;;10.70;6.40;;;;;;;-149.78;100.00;50174.19;4689272;30;20495;-68
2022/05/01 11:09:56;;;;;;;13.65;7.50;;;;;;;-149.78;100.00;50131.16;4689452;30;20059;-68
2022/05/01 11:12:23;;;;;;;10.15;6.43;;;;;;;-149.78;100.00;50178.09;4688839;30;20041;-68
2022/05/01 11:15:00;;;;;;;12.13;7.30;;;;;;;-149.78;100.00;50119.41;4689383;30;20053;-68
2022/05/01 11:17:54;;;;;;;11.18;7.00;;;;;;;-149.78;100.00;50146.81;4688990;30;20042;-68